Boonville, Indiana
Current Conditions -  °F | °C
As of 8:54 AM on Saturday 20 Dec 2014 (Local Time) from KEVV Reporting Station
Overcast Overcast  
Wind Chill: 28°   Ceiling: 6000
Heat Index: 33°   Visibility: 10mi
Dew Point: 25°   Wind: 6mph
Humidity: 72%   Direction: 70°ENE
Pressure: 30.32"   Gusts: NA
Location:  38.05°N, 87.27°W
Report Text: KEVV 201454Z 07005KT 10SM OVC060 01/M04 A3032 RMK AO2 SLP270 T00061039 53003
Loading
Personal Weather Stations






























Interactive Weather Map New forecast layout! Learn more

10-Day Weather Forecast

Advertisements
Track Severe Weather on mobile